createdAt,value
2018-05-07T00:00:13.929Z,12.69
2018-05-07T00:01:14.149Z,12.65
2018-05-07T00:02:14.320Z,12.68
2018-05-07T00:03:14.504Z,12.68
2018-05-07T00:04:14.677Z,12.77
2018-05-07T00:05:14.865Z,12.80
2018-05-07T00:06:15.191Z,12.83
2018-05-07T00:07:15.267Z,12.90
2018-05-07T00:08:15.427Z,12.91
2018-05-07T00:09:15.623Z,12.96
2018-05-07T00:10:15.817Z,12.96
2018-05-07T00:11:15.987Z,12.98
2018-05-07T00:12:16.177Z,12.88
2018-05-07T00:13:16.360Z,12.81
2018-05-07T00:14:16.546Z,12.95
2018-05-07T00:15:16.732Z,12.98
2018-05-07T00:16:16.923Z,13.01
2018-05-07T00:17:17.107Z,12.99
2018-05-07T00:18:17.294Z,12.98
2018-05-07T00:19:17.480Z,12.73
2018-05-07T00:20:17.669Z,12.84
2018-05-07T00:21:17.860Z,12.72
2018-05-07T00:22:18.042Z,12.76
2018-05-07T00:23:18.228Z,12.72
2018-05-07T00:24:18.415Z,12.69
2018-05-07T00:25:18.602Z,12.50
2018-05-07T00:26:18.788Z,12.35
2018-05-07T00:27:19.009Z,12.18
2018-05-07T00:28:19.163Z,12.14
2018-05-07T00:29:19.349Z,12.07
2018-05-07T00:30:19.541Z,11.97
2018-05-07T00:31:19.725Z,11.93
2018-05-07T00:32:19.912Z,11.79
2018-05-07T00:33:20.140Z,11.74
2018-05-07T00:34:20.285Z,11.67
2018-05-07T00:35:20.470Z,11.46
2018-05-07T00:36:20.658Z,11.31
2018-05-07T00:37:20.845Z,11.19
2018-05-07T00:38:21.031Z,11.08
2018-05-07T00:39:21.219Z,11.15
2018-05-07T00:40:21.405Z,11.05
2018-05-07T00:41:21.592Z,11.19
2018-05-07T00:42:21.778Z,11.03
2018-05-07T00:43:21.965Z,11.03
2018-05-07T00:44:22.150Z,10.97
2018-05-07T00:45:22.342Z,11.03
2018-05-07T00:46:22.524Z,10.93
2018-05-07T00:47:22.708Z,10.87
2018-05-07T00:48:22.895Z,10.70
2018-05-07T00:49:23.079Z,10.73
2018-05-07T00:50:23.268Z,10.73
2018-05-07T00:51:23.502Z,10.79
2018-05-07T00:52:23.638Z,10.75
2018-05-07T00:53:23.825Z,10.73
2018-05-07T00:54:24.011Z,10.79
2018-05-07T00:55:24.198Z,10.70
2018-05-07T00:56:24.384Z,10.72
2018-05-07T00:57:24.574Z,10.78
2018-05-07T00:58:24.758Z,10.85
2018-05-07T00:59:24.953Z,10.82
2018-05-07T01:00:25.130Z,10.85
2018-05-07T01:01:25.321Z,10.85
2018-05-07T01:02:25.507Z,10.97
2018-05-07T01:03:25.693Z,10.94
2018-05-07T01:04:25.879Z,11.01
2018-05-07T01:05:26.064Z,11.16
2018-05-07T01:06:26.250Z,11.37
2018-05-07T01:07:26.435Z,11.55
2018-05-07T01:08:26.642Z,11.62
2018-05-07T01:09:26.829Z,11.61
2018-05-07T01:10:27.015Z,11.54
2018-05-07T01:11:27.203Z,11.59
2018-05-07T01:12:27.389Z,11.66
2018-05-07T01:13:27.575Z,11.74
2018-05-07T01:14:27.761Z,11.66
2018-05-07T01:15:27.945Z,11.74
2018-05-07T01:16:28.133Z,11.82
2018-05-07T01:17:28.320Z,11.84
2018-05-07T01:18:28.509Z,11.87
2018-05-07T01:19:28.694Z,11.91
2018-05-07T01:20:28.880Z,12.11
2018-05-07T01:21:29.067Z,12.14
2018-05-07T01:22:29.253Z,12.13
2018-05-07T01:23:29.440Z,12.08
2018-05-07T01:24:29.627Z,12.00
2018-05-07T01:25:29.813Z,11.76
2018-05-07T01:26:29.999Z,11.87
2018-05-07T01:27:30.186Z,11.79
2018-05-07T01:28:30.371Z,11.70
2018-05-07T01:29:30.559Z,11.64
2018-05-07T01:30:30.746Z,11.52
2018-05-07T01:31:30.933Z,11.40
2018-05-07T01:32:31.119Z,11.19
2018-05-07T01:33:31.305Z,11.20
2018-05-07T01:34:31.491Z,11.12
2018-05-07T01:35:31.677Z,11.05
2018-05-07T01:36:31.866Z,11.15
2018-05-07T01:37:32.050Z,11.05
2018-05-07T01:38:32.235Z,11.08
2018-05-07T01:39:32.421Z,11.11
2018-05-07T01:40:32.609Z,11.08
2018-05-07T01:41:32.796Z,11.05
2018-05-07T01:42:32.981Z,10.86
2018-05-07T01:43:33.168Z,10.94
2018-05-07T01:44:33.355Z,10.79
2018-05-07T01:45:33.540Z,10.80
2018-05-07T01:46:33.728Z,10.78
2018-05-07T01:47:33.916Z,10.65
2018-05-07T01:48:34.100Z,10.67
2018-05-07T01:49:34.287Z,10.55
2018-05-07T01:50:34.474Z,10.55
2018-05-07T01:51:34.659Z,10.52
2018-05-07T01:52:34.846Z,10.41
2018-05-07T01:53:35.033Z,10.34
2018-05-07T01:54:35.221Z,10.41
2018-05-07T01:55:35.407Z,10.38
2018-05-07T01:56:35.593Z,10.27
2018-05-07T01:57:35.780Z,10.17
2018-05-07T01:58:35.966Z,10.24
2018-05-07T01:59:36.154Z,10.17
2018-05-07T02:00:36.339Z,10.14
2018-05-07T02:01:36.526Z,10.06
2018-05-07T02:02:36.711Z,10.14
2018-05-07T02:03:36.899Z,10.14
2018-05-07T02:04:37.084Z,10.17
2018-05-07T02:05:37.270Z,10.17
2018-05-07T02:06:37.457Z,10.26
2018-05-07T02:07:37.643Z,10.14
2018-05-07T02:08:37.831Z,10.09
2018-05-07T02:09:38.017Z,10.10
2018-05-07T02:10:38.205Z,10.05
2018-05-07T02:11:38.390Z,9.88
2018-05-07T02:12:38.574Z,9.84
2018-05-07T02:13:38.761Z,9.80
2018-05-07T02:14:38.947Z,9.75
2018-05-07T02:15:39.133Z,9.73
2018-05-07T02:16:39.319Z,9.63
2018-05-07T02:17:39.504Z,9.69
2018-05-07T02:18:39.691Z,9.66
2018-05-07T02:19:39.881Z,9.73
2018-05-07T02:20:40.066Z,9.75
2018-05-07T02:21:40.253Z,9.81
2018-05-07T02:22:40.439Z,9.77
2018-05-07T02:23:40.627Z,9.77
2018-05-07T02:24:40.813Z,9.81
2018-05-07T02:25:40.999Z,9.70
2018-05-07T02:26:41.188Z,9.78
2018-05-07T02:27:41.375Z,9.85
2018-05-07T02:28:41.559Z,9.83
2018-05-07T02:29:41.746Z,9.85
2018-05-07T02:30:41.930Z,9.94
2018-05-07T02:31:42.117Z,9.98
2018-05-07T02:32:42.305Z,10.06
2018-05-07T02:33:42.491Z,9.96
2018-05-07T02:34:42.676Z,9.99
2018-05-07T02:35:42.863Z,10.09
2018-05-07T02:36:43.047Z,10.05
2018-05-07T02:37:43.233Z,9.93
2018-05-07T02:38:43.420Z,9.88
2018-05-07T02:39:43.605Z,9.87
2018-05-07T02:40:43.790Z,9.87
2018-05-07T02:41:43.976Z,9.91
2018-05-07T02:42:44.165Z,9.87
2018-05-07T02:43:44.351Z,9.83
2018-05-07T02:44:44.536Z,9.77
2018-05-07T02:45:44.723Z,9.75
2018-05-07T02:46:44.909Z,9.67
2018-05-07T02:47:45.095Z,9.63
2018-05-07T02:48:45.279Z,9.63
2018-05-07T02:49:45.465Z,9.60
2018-05-07T02:50:45.653Z,9.48
2018-05-07T02:51:45.837Z,9.41
2018-05-07T02:52:46.023Z,9.45
2018-05-07T02:53:46.208Z,9.36
2018-05-07T02:54:46.395Z,9.36
2018-05-07T02:55:46.579Z,9.50
2018-05-07T02:56:46.764Z,9.44
2018-05-07T02:57:46.951Z,9.29
2018-05-07T02:58:47.139Z,9.32
2018-05-07T02:59:47.324Z,9.23
2018-05-07T03:00:47.517Z,9.19
2018-05-07T03:01:47.698Z,9.06
2018-05-07T03:02:47.887Z,9.12
2018-05-07T03:03:48.068Z,9.01
2018-05-07T03:04:48.254Z,9.03
2018-05-07T03:05:48.443Z,9.01
2018-05-07T03:06:48.627Z,8.98
2018-05-07T03:07:48.814Z,8.86
2018-05-07T03:08:48.999Z,8.88
2018-05-07T03:09:49.192Z,8.88
2018-05-07T03:10:49.373Z,8.83
2018-05-07T03:11:49.559Z,8.78
2018-05-07T03:12:49.745Z,8.83
2018-05-07T03:13:49.932Z,8.86
2018-05-07T03:14:50.116Z,8.78
2018-05-07T03:15:50.302Z,8.83
2018-05-07T03:16:50.495Z,8.80
2018-05-07T03:17:50.674Z,8.83
2018-05-07T03:18:50.860Z,8.81
2018-05-07T03:19:51.049Z,8.89
2018-05-07T03:20:51.234Z,8.81
2018-05-07T03:21:51.422Z,8.88
2018-05-07T03:22:51.607Z,8.88
2018-05-07T03:23:51.794Z,8.89
2018-05-07T03:24:51.980Z,8.89
2018-05-07T03:25:52.167Z,8.89
2018-05-07T03:26:52.351Z,8.85
2018-05-07T03:27:52.537Z,8.80
2018-05-07T03:28:52.723Z,8.86
2018-05-07T03:29:52.908Z,8.78
2018-05-07T03:30:53.095Z,8.78
2018-05-07T03:31:53.281Z,8.65
2018-05-07T03:32:53.469Z,8.68
2018-05-07T03:33:53.654Z,8.56
2018-05-07T03:34:53.843Z,8.47
2018-05-07T03:35:54.028Z,8.49
2018-05-07T03:36:54.214Z,8.52
2018-05-07T03:37:54.399Z,8.42
2018-05-07T03:38:54.587Z,8.55
2018-05-07T03:39:54.772Z,8.62
2018-05-07T03:40:54.957Z,8.50
2018-05-07T03:41:55.143Z,8.47
2018-05-07T03:42:55.328Z,8.47
2018-05-07T03:43:55.513Z,8.52
2018-05-07T03:44:55.704Z,8.47
2018-05-07T03:45:55.885Z,8.55
2018-05-07T03:46:56.071Z,8.49
2018-05-07T03:47:56.258Z,8.53
2018-05-07T03:48:56.442Z,8.53
2018-05-07T03:49:56.627Z,8.41
2018-05-07T03:50:56.813Z,8.46
2018-05-07T03:51:56.999Z,8.47
2018-05-07T03:52:57.185Z,8.47
2018-05-07T03:53:57.374Z,8.47
2018-05-07T03:54:57.555Z,8.42
2018-05-07T03:55:57.741Z,8.37
2018-05-07T03:56:57.927Z,8.41
2018-05-07T03:57:58.115Z,8.50
2018-05-07T03:58:58.300Z,8.57
2018-05-07T03:59:58.489Z,8.59
2018-05-07T04:00:58.671Z,8.80
2018-05-07T04:01:58.857Z,8.92
2018-05-07T04:02:59.045Z,8.96
2018-05-07T04:03:59.229Z,8.98
2018-05-07T04:04:59.413Z,9.22
2018-05-07T04:05:59.605Z,9.41
2018-05-07T04:06:59.790Z,9.52
2018-05-07T04:07:59.972Z,9.44
2018-05-07T04:09:00.160Z,9.55
2018-05-07T04:10:00.350Z,9.66
2018-05-07T04:11:00.534Z,9.62
2018-05-07T04:12:00.722Z,9.63
2018-05-07T04:13:00.908Z,9.57
2018-05-07T04:14:01.094Z,9.37
2018-05-07T04:15:01.282Z,9.45
2018-05-07T04:16:01.470Z,9.44
2018-05-07T04:17:01.688Z,9.48
2018-05-07T04:18:01.877Z,9.60
2018-05-07T04:19:02.062Z,9.47
2018-05-07T04:20:02.251Z,9.40
2018-05-07T04:21:02.437Z,9.66
2018-05-07T04:22:02.626Z,9.72
2018-05-07T04:23:02.813Z,9.84
2018-05-07T04:24:03.005Z,9.94
2018-05-07T04:25:03.296Z,10.16
2018-05-07T04:26:03.360Z,10.42
2018-05-07T04:27:03.547Z,10.43
2018-05-07T04:28:03.736Z,10.45
2018-05-07T04:29:03.927Z,10.64
2018-05-07T04:30:04.113Z,10.86
2018-05-07T04:31:04.302Z,10.94
2018-05-07T04:32:04.493Z,11.00
2018-05-07T04:33:04.684Z,11.03
2018-05-07T04:34:04.870Z,11.00
2018-05-07T04:35:05.059Z,10.98
2018-05-07T04:36:05.251Z,11.19
2018-05-07T04:37:05.440Z,11.41
2018-05-07T04:38:05.629Z,11.62
2018-05-07T04:39:05.819Z,11.84
2018-05-07T04:40:06.011Z,12.00
2018-05-07T04:41:06.198Z,11.95
2018-05-07T04:42:06.391Z,12.05
2018-05-07T04:43:06.582Z,11.87
2018-05-07T04:44:06.775Z,11.80
2018-05-07T04:45:06.966Z,11.82
2018-05-07T04:46:07.157Z,11.69
2018-05-07T04:47:07.349Z,11.79
2018-05-07T04:48:07.543Z,11.97
2018-05-07T04:49:07.734Z,11.99
2018-05-07T04:50:07.929Z,12.05
2018-05-07T04:51:08.121Z,12.10
2018-05-07T04:52:08.312Z,11.99
2018-05-07T04:53:08.505Z,12.15
2018-05-07T04:54:08.700Z,12.05
2018-05-07T04:55:08.912Z,11.99
2018-05-07T04:56:09.086Z,12.10
2018-05-07T04:57:09.281Z,12.15
2018-05-07T04:58:09.472Z,12.33
2018-05-07T04:59:09.672Z,12.41
2018-05-07T05:00:09.860Z,12.54
2018-05-07T05:01:10.055Z,12.65
2018-05-07T05:02:10.250Z,12.79
2018-05-07T05:03:10.442Z,12.35
2018-05-07T05:04:10.639Z,12.07
2018-05-07T05:05:10.834Z,12.18
2018-05-07T05:06:11.028Z,12.11
2018-05-07T05:07:11.239Z,12.11
2018-05-07T05:08:11.418Z,12.14
2018-05-07T05:09:11.615Z,12.23
2018-05-07T05:10:11.810Z,12.00
2018-05-07T05:11:12.008Z,11.93
2018-05-07T05:12:12.204Z,11.87
2018-05-07T05:13:12.400Z,11.73
2018-05-07T05:14:12.595Z,11.79
2018-05-07T05:15:12.792Z,11.82
2018-05-07T05:16:12.989Z,12.04
2018-05-07T05:17:13.187Z,11.95
2018-05-07T05:18:13.383Z,12.14
2018-05-07T05:19:13.584Z,12.13
2018-05-07T05:20:13.781Z,12.14
2018-05-07T05:21:14.023Z,12.25
2018-05-07T05:22:14.175Z,12.51
2018-05-07T05:23:14.373Z,12.40
2018-05-07T05:24:14.571Z,12.08
2018-05-07T05:25:14.770Z,12.33
2018-05-07T05:26:14.968Z,12.21
2018-05-07T05:27:15.207Z,11.91
2018-05-07T05:28:15.367Z,11.85
2018-05-07T05:29:15.566Z,11.82
2018-05-07T05:30:15.763Z,12.17
2018-05-07T05:31:15.963Z,12.30
2018-05-07T05:32:16.166Z,12.18
2018-05-07T05:33:16.365Z,12.21
2018-05-07T05:34:16.632Z,12.36
2018-05-07T05:35:16.761Z,12.53
2018-05-07T05:36:16.959Z,12.44
2018-05-07T05:37:17.245Z,12.47
2018-05-07T05:38:17.356Z,12.35
2018-05-07T05:39:17.556Z,12.47
2018-05-07T05:40:17.753Z,12.86
2018-05-07T05:41:17.955Z,12.59
2018-05-07T05:42:18.154Z,12.72
2018-05-07T05:43:18.354Z,12.79
2018-05-07T05:44:18.554Z,12.65
2018-05-07T05:45:18.754Z,12.47
2018-05-07T05:46:18.952Z,12.76
2018-05-07T05:47:19.154Z,13.01
2018-05-07T05:48:19.358Z,13.17
2018-05-07T05:49:19.555Z,12.80
2018-05-07T05:50:19.772Z,12.81
2018-05-07T05:51:19.955Z,12.76
2018-05-07T05:52:20.158Z,13.01
2018-05-07T05:53:20.360Z,13.68
2018-05-07T05:54:20.557Z,14.16
2018-05-07T05:55:20.755Z,13.71
2018-05-07T05:56:21.008Z,13.86
2018-05-07T05:57:21.157Z,14.31
2018-05-07T05:58:21.356Z,14.61
2018-05-07T05:59:21.558Z,15.14
2018-05-07T06:00:21.760Z,15.32
2018-05-07T06:01:21.960Z,15.65
2018-05-07T06:02:22.160Z,14.69
2018-05-07T06:03:22.363Z,14.01
2018-05-07T06:04:22.563Z,14.21
2018-05-07T06:05:22.764Z,13.67
2018-05-07T06:06:22.964Z,13.61
2018-05-07T06:07:23.168Z,13.73
2018-05-07T06:08:23.369Z,13.32
2018-05-07T06:09:23.569Z,13.20
2018-05-07T06:10:23.774Z,13.35
2018-05-07T06:11:23.973Z,13.51
2018-05-07T06:12:24.175Z,13.67
2018-05-07T06:13:24.377Z,13.51
2018-05-07T06:14:24.636Z,13.09
2018-05-07T06:15:24.779Z,13.06
2018-05-07T06:16:24.981Z,13.47
2018-05-07T06:17:25.183Z,13.97
2018-05-07T06:18:25.394Z,13.39
2018-05-07T06:19:25.616Z,13.38
2018-05-07T06:20:25.829Z,13.49
2018-05-07T06:21:25.999Z,13.83
2018-05-07T06:22:26.199Z,13.68
2018-05-07T06:23:26.425Z,14.05
2018-05-07T06:24:26.618Z,14.15
2018-05-07T06:25:26.781Z,14.22
2018-05-07T06:26:26.983Z,13.97
2018-05-07T06:27:27.184Z,14.27
2018-05-07T06:28:27.384Z,14.12
2018-05-07T06:29:27.589Z,13.94
2018-05-07T06:30:27.786Z,14.26
2018-05-07T06:31:27.988Z,14.23
2018-05-07T06:32:28.188Z,14.63
2018-05-07T06:33:28.388Z,14.51
2018-05-07T06:34:28.652Z,14.40
2018-05-07T06:35:28.793Z,14.53
2018-05-07T06:36:28.994Z,14.52
2018-05-07T06:37:29.200Z,14.49
2018-05-07T06:38:29.394Z,14.59
2018-05-07T06:39:29.598Z,14.63
2018-05-07T06:40:29.799Z,14.85
2018-05-07T06:41:30.004Z,14.41
2018-05-07T06:42:30.202Z,14.36
2018-05-07T06:43:30.403Z,14.63
2018-05-07T06:44:30.606Z,14.66
2018-05-07T06:45:30.828Z,14.90
2018-05-07T06:46:31.007Z,14.83
2018-05-07T06:47:31.208Z,14.74
2018-05-07T06:48:31.410Z,14.96
2018-05-07T06:49:31.612Z,15.10
2018-05-07T06:50:31.813Z,14.99
2018-05-07T06:51:32.015Z,15.50
2018-05-07T06:52:32.217Z,15.35
2018-05-07T06:53:32.418Z,15.27
2018-05-07T06:54:32.620Z,15.36
2018-05-07T06:55:32.821Z,15.56
2018-05-07T06:56:33.023Z,15.36
2018-05-07T06:57:33.224Z,15.69
2018-05-07T06:58:33.425Z,15.83
2018-05-07T06:59:33.628Z,15.68
2018-05-07T07:00:33.831Z,15.99
2018-05-07T07:01:34.034Z,15.72
2018-05-07T07:02:34.471Z,15.70
2018-05-07T07:03:34.436Z,15.66
2018-05-07T07:04:34.641Z,15.59
2018-05-07T07:05:34.841Z,16.03
2018-05-07T07:06:35.046Z,16.46
2018-05-07T07:07:35.247Z,16.73
2018-05-07T07:08:35.490Z,16.76
2018-05-07T07:09:35.651Z,16.70
2018-05-07T07:10:35.853Z,16.52
2018-05-07T07:11:36.056Z,16.55
2018-05-07T07:12:36.257Z,16.64
2018-05-07T07:13:36.461Z,16.69
2018-05-07T07:14:36.663Z,16.69
2018-05-07T07:15:36.867Z,16.80
2018-05-07T07:16:37.072Z,16.91
2018-05-07T07:17:37.276Z,16.67
2018-05-07T07:18:37.479Z,16.65
2018-05-07T07:19:37.681Z,17.01
2018-05-07T07:20:37.884Z,16.91
2018-05-07T07:21:38.086Z,16.70
2018-05-07T07:22:38.291Z,16.67
2018-05-07T07:23:38.492Z,16.92
2018-05-07T07:24:38.695Z,16.83
2018-05-07T07:25:38.896Z,16.95
2018-05-07T07:26:39.098Z,16.94
2018-05-07T07:27:39.304Z,17.10
2018-05-07T07:28:39.504Z,16.94
2018-05-07T07:29:39.709Z,17.09
2018-05-07T07:30:39.913Z,17.76
2018-05-07T07:31:40.114Z,17.96
2018-05-07T07:32:40.315Z,17.56
2018-05-07T07:33:40.545Z,17.27
2018-05-07T07:34:40.722Z,17.35
2018-05-07T07:35:40.926Z,17.30
2018-05-07T07:36:41.130Z,17.31
2018-05-07T07:37:41.332Z,17.16
2018-05-07T07:38:41.534Z,17.45
2018-05-07T07:39:41.735Z,17.88
2018-05-07T07:40:41.941Z,17.69
2018-05-07T07:41:42.143Z,17.54
2018-05-07T07:42:42.348Z,17.56
2018-05-07T07:43:42.547Z,17.91
2018-05-07T07:44:42.744Z,17.66
2018-05-07T07:45:42.948Z,17.79
2018-05-07T07:46:43.148Z,17.76
2018-05-07T07:47:43.351Z,18.12
2018-05-07T07:48:43.560Z,18.11
2018-05-07T07:49:43.758Z,18.34
2018-05-07T07:50:43.961Z,18.86
2018-05-07T07:51:44.166Z,18.97
2018-05-07T07:52:44.368Z,19.05
2018-05-07T07:53:44.635Z,18.63
2018-05-07T07:54:44.771Z,18.09
2018-05-07T07:55:44.975Z,17.93
2018-05-07T07:56:45.177Z,18.21
2018-05-07T07:57:45.380Z,18.42
2018-05-07T07:58:45.583Z,18.57
2018-05-07T07:59:45.784Z,18.74
2018-05-07T08:00:45.987Z,18.51
2018-05-07T08:01:46.188Z,18.89
2018-05-07T08:02:46.393Z,18.74
2018-05-07T08:03:46.594Z,18.98
2018-05-07T08:04:46.795Z,19.30
2018-05-07T08:05:46.999Z,20.17
2018-05-07T08:06:47.200Z,19.70
2018-05-07T08:07:47.403Z,19.07
2018-05-07T08:08:47.606Z,19.20
2018-05-07T08:09:47.807Z,19.15
2018-05-07T08:10:48.009Z,19.23
2018-05-07T08:11:48.211Z,19.39
2018-05-07T08:12:48.413Z,19.04
2018-05-07T08:13:48.618Z,19.16
2018-05-07T08:14:48.817Z,19.37
2018-05-07T08:15:49.019Z,19.49
2018-05-07T08:16:49.222Z,19.38
2018-05-07T08:17:49.428Z,19.42
2018-05-07T08:18:49.627Z,19.57
2018-05-07T08:19:49.827Z,19.94
2018-05-07T08:20:50.032Z,19.64
2018-05-07T08:21:50.240Z,19.12
2018-05-07T08:22:50.438Z,19.44
2018-05-07T08:23:50.637Z,20.34
2018-05-07T08:24:50.925Z,21.04
2018-05-07T08:25:51.041Z,20.00
2018-05-07T08:26:51.244Z,19.87
2018-05-07T08:27:51.446Z,20.41
2018-05-07T08:28:51.647Z,21.19
2018-05-07T08:29:51.847Z,21.44
2018-05-07T08:30:52.048Z,21.28
2018-05-07T08:31:52.250Z,22.15
2018-05-07T08:32:52.452Z,22.68
2018-05-07T08:33:52.660Z,22.66
2018-05-07T08:34:52.855Z,23.31
2018-05-07T08:35:53.075Z,23.29
2018-05-07T08:36:53.259Z,23.17
2018-05-07T08:37:53.464Z,23.11
2018-05-07T08:38:53.664Z,22.89
2018-05-07T08:39:53.872Z,22.51
2018-05-07T08:40:54.070Z,22.43
2018-05-07T08:41:54.271Z,22.67
2018-05-07T08:42:54.474Z,22.80
2018-05-07T08:43:54.677Z,22.52
2018-05-07T08:44:54.878Z,22.61
2018-05-07T08:45:55.080Z,22.68
2018-05-07T08:46:55.282Z,22.88
2018-05-07T08:47:55.488Z,23.18
2018-05-07T08:48:55.687Z,23.34
2018-05-07T08:49:55.891Z,23.59
2018-05-07T08:50:56.109Z,23.71
2018-05-07T08:51:56.293Z,23.76
2018-05-07T08:52:56.539Z,23.49
2018-05-07T08:53:56.696Z,23.22
2018-05-07T08:54:56.926Z,22.71
2018-05-07T08:55:57.099Z,22.56
2018-05-07T08:56:57.303Z,22.89
2018-05-07T08:57:57.504Z,23.44
2018-05-07T08:58:57.704Z,23.67
2018-05-07T08:59:57.907Z,24.11
2018-05-07T09:00:58.108Z,23.88
2018-05-07T09:01:58.309Z,23.76
2018-05-07T09:02:58.511Z,23.39
2018-05-07T09:03:58.717Z,23.54
2018-05-07T09:04:58.912Z,23.74
2018-05-07T09:05:59.113Z,23.63
2018-05-07T09:06:59.315Z,23.29
2018-05-07T09:07:59.573Z,22.28
2018-05-07T09:08:59.718Z,21.16
2018-05-07T09:09:59.919Z,22.11
2018-05-07T09:11:00.121Z,22.66
2018-05-07T09:12:00.322Z,22.73
2018-05-07T09:13:00.529Z,22.67
2018-05-07T09:14:00.727Z,22.58
2018-05-07T09:15:00.927Z,22.25
2018-05-07T09:16:01.130Z,22.34
2018-05-07T09:17:01.326Z,22.21
2018-05-07T09:18:01.529Z,22.71
2018-05-07T09:19:01.737Z,22.91
2018-05-07T09:20:01.997Z,23.08
2018-05-07T09:21:02.124Z,22.40
2018-05-07T09:22:02.325Z,22.13
2018-05-07T09:23:02.525Z,21.35
2018-05-07T09:24:02.726Z,21.69
2018-05-07T09:25:02.925Z,22.04
2018-05-07T09:26:03.230Z,22.40
2018-05-07T09:27:03.311Z,22.33
2018-05-07T09:28:03.505Z,22.36
2018-05-07T09:29:03.702Z,22.89
2018-05-07T09:30:03.904Z,22.81
2018-05-07T09:31:04.102Z,22.51
2018-05-07T09:32:04.302Z,22.23
2018-05-07T09:33:04.503Z,22.07
2018-05-07T09:34:04.703Z,22.31
2018-05-07T09:35:04.902Z,21.59
2018-05-07T09:36:05.102Z,21.67
2018-05-07T09:37:05.304Z,21.93
2018-05-07T09:38:05.498Z,22.23
2018-05-07T09:39:05.698Z,22.59
2018-05-07T09:40:05.895Z,22.01
2018-05-07T09:41:06.094Z,22.06
2018-05-07T09:42:06.295Z,21.38
2018-05-07T09:43:06.496Z,22.07
2018-05-07T09:44:06.690Z,21.98
2018-05-07T09:45:06.889Z,22.16
2018-05-07T09:46:07.088Z,21.88
2018-05-07T09:47:07.287Z,22.03
2018-05-07T09:48:07.485Z,22.18
2018-05-07T09:49:07.684Z,21.60
2018-05-07T09:50:07.881Z,21.77
2018-05-07T09:51:08.080Z,21.56
2018-05-07T09:52:08.276Z,21.10
2018-05-07T09:53:08.475Z,21.26
2018-05-07T09:54:08.672Z,21.85
2018-05-07T09:55:08.870Z,22.67
2018-05-07T09:56:09.067Z,22.89
2018-05-07T09:57:09.262Z,22.64
2018-05-07T09:58:09.462Z,22.80
2018-05-07T09:59:09.659Z,22.68
2018-05-07T10:00:09.855Z,22.53
2018-05-07T10:01:10.052Z,22.76
2018-05-07T10:02:10.249Z,22.46
2018-05-07T10:03:10.447Z,22.09
2018-05-07T10:04:10.644Z,21.59
2018-05-07T10:05:10.843Z,21.55
2018-05-07T10:06:11.039Z,21.82
2018-05-07T10:07:11.237Z,22.09
2018-05-07T10:08:11.430Z,22.07
2018-05-07T10:09:11.629Z,22.37
2018-05-07T10:10:11.821Z,22.33
2018-05-07T10:11:12.019Z,22.11
2018-05-07T10:12:12.219Z,22.48
2018-05-07T10:13:12.409Z,21.75
2018-05-07T10:14:12.606Z,21.29
2018-05-07T10:15:12.801Z,21.51
2018-05-07T10:16:12.998Z,21.65
2018-05-07T10:17:13.192Z,21.29
2018-05-07T10:18:13.387Z,21.25
2018-05-07T10:19:13.584Z,21.69
2018-05-07T10:20:13.783Z,21.66
2018-05-07T10:21:13.973Z,21.98
2018-05-07T10:22:14.169Z,22.21
2018-05-07T10:23:14.364Z,22.73
2018-05-07T10:24:14.577Z,22.33
2018-05-07T10:25:14.757Z,22.58
2018-05-07T10:26:14.947Z,22.53
2018-05-07T10:27:15.143Z,22.67
2018-05-07T10:28:15.338Z,22.38
2018-05-07T10:29:15.532Z,22.34
2018-05-07T10:30:15.730Z,21.97
2018-05-07T10:31:15.922Z,22.01
2018-05-07T10:32:16.116Z,22.15
2018-05-07T10:33:16.310Z,21.81
2018-05-07T10:34:16.504Z,22.36
2018-05-07T10:35:16.735Z,22.71
2018-05-07T10:36:16.896Z,22.48
2018-05-07T10:37:17.091Z,22.25
2018-05-07T10:38:17.284Z,22.33
2018-05-07T10:39:17.480Z,22.36
2018-05-07T10:40:17.675Z,22.38
2018-05-07T10:41:17.869Z,21.75
2018-05-07T10:42:18.066Z,21.71
2018-05-07T10:43:18.260Z,21.71
2018-05-07T10:44:18.456Z,22.06
2018-05-07T10:45:18.650Z,22.43
2018-05-07T10:46:18.847Z,22.68
2018-05-07T10:47:19.039Z,22.13
2018-05-07T10:48:19.234Z,22.07
2018-05-07T10:49:19.427Z,22.06
2018-05-07T10:50:19.621Z,22.37
2018-05-07T10:51:19.815Z,22.64
2018-05-07T10:52:20.011Z,22.77
2018-05-07T10:53:20.206Z,22.51
2018-05-07T10:54:20.403Z,22.44
2018-05-07T10:55:20.603Z,22.71
2018-05-07T10:56:20.791Z,22.80
2018-05-07T10:57:20.988Z,22.93
2018-05-07T10:58:21.181Z,22.98
2018-05-07T10:59:21.375Z,22.83
2018-05-07T11:00:21.571Z,22.25
2018-05-07T11:01:21.769Z,22.37
2018-05-07T11:02:21.959Z,22.13
2018-05-07T11:03:22.155Z,22.04
2018-05-07T11:04:22.351Z,21.80
2018-05-07T11:05:22.545Z,22.11
2018-05-07T11:06:22.744Z,22.43
2018-05-07T11:07:22.992Z,22.81
2018-05-07T11:08:23.128Z,22.30
2018-05-07T11:09:23.323Z,22.68
2018-05-07T11:10:23.518Z,22.53
2018-05-07T11:11:23.715Z,22.49
2018-05-07T11:12:23.911Z,22.61
2018-05-07T11:13:24.105Z,22.78
2018-05-07T11:14:24.298Z,22.58
2018-05-07T11:15:24.495Z,22.93
2018-05-07T11:16:24.690Z,23.10
2018-05-07T11:17:24.884Z,23.17
2018-05-07T11:18:25.081Z,23.26
2018-05-07T11:19:25.326Z,23.54
2018-05-07T11:20:25.474Z,23.18
2018-05-07T11:21:25.662Z,22.83
2018-05-07T11:22:25.858Z,22.66
2018-05-07T11:23:26.051Z,23.21
2018-05-07T11:24:26.247Z,22.78
2018-05-07T11:25:26.441Z,22.89
2018-05-07T11:26:26.631Z,22.89
2018-05-07T11:27:26.820Z,23.14
2018-05-07T11:28:27.006Z,22.74
2018-05-07T11:29:27.200Z,22.89
2018-05-07T11:30:27.395Z,23.07
2018-05-07T11:31:27.596Z,22.95
2018-05-07T11:32:27.790Z,22.83
2018-05-07T11:33:27.982Z,22.73
2018-05-07T11:34:28.174Z,23.04
2018-05-07T11:35:28.370Z,23.01
2018-05-07T11:36:28.566Z,23.10
2018-05-07T11:37:28.766Z,23.17
2018-05-07T11:38:28.953Z,23.03
2018-05-07T11:39:29.148Z,22.98
2018-05-07T11:40:29.339Z,23.03
2018-05-07T11:41:29.535Z,23.21
2018-05-07T11:42:29.728Z,23.03
2018-05-07T11:43:29.924Z,22.92
2018-05-07T11:44:30.123Z,23.45
2018-05-07T11:45:30.314Z,23.26
2018-05-07T11:46:30.507Z,23.41
2018-05-07T11:47:30.770Z,23.54
2018-05-07T11:48:30.897Z,23.34
2018-05-07T11:49:31.092Z,23.26
2018-05-07T11:50:31.286Z,22.95
2018-05-07T11:51:31.480Z,23.10
2018-05-07T11:52:31.675Z,22.86
2018-05-07T11:53:31.870Z,23.11
2018-05-07T11:54:32.064Z,23.11
2018-05-07T11:55:32.265Z,23.11
2018-05-07T11:56:32.455Z,23.48
2018-05-07T11:57:32.653Z,23.49
2018-05-07T11:58:32.842Z,23.46
2018-05-07T11:59:33.036Z,23.52
2018-05-07T12:00:33.233Z,23.54
2018-05-07T12:01:33.426Z,23.67
2018-05-07T12:02:33.620Z,24.07
2018-05-07T12:03:33.814Z,24.16
2018-05-07T12:04:34.008Z,23.66
2018-05-07T12:05:34.203Z,23.06
2018-05-07T12:06:34.396Z,23.46
2018-05-07T12:07:34.590Z,23.11
2018-05-07T12:08:34.783Z,23.22
2018-05-07T12:09:34.976Z,23.10
2018-05-07T12:10:35.168Z,23.07
2018-05-07T12:11:35.363Z,23.36
2018-05-07T12:12:35.557Z,22.98
2018-05-07T12:13:35.751Z,22.74
2018-05-07T12:14:35.944Z,23.10
2018-05-07T12:15:36.141Z,23.39
2018-05-07T12:16:36.332Z,23.51
2018-05-07T12:17:36.526Z,23.76
2018-05-07T12:18:36.721Z,23.85
2018-05-07T12:19:36.915Z,24.22
2018-05-07T12:20:37.108Z,24.21
2018-05-07T12:21:37.304Z,24.22
2018-05-07T12:22:37.497Z,24.01
2018-05-07T12:23:37.689Z,24.08
2018-05-07T12:24:37.885Z,24.15
2018-05-07T12:25:38.077Z,24.22
2018-05-07T12:26:38.272Z,24.33
2018-05-07T12:27:38.464Z,24.21
2018-05-07T12:28:38.658Z,24.08
2018-05-07T12:29:38.853Z,23.96
2018-05-07T12:30:39.047Z,23.96
2018-05-07T12:31:39.273Z,23.88
2018-05-07T12:32:39.438Z,23.91
2018-05-07T12:33:39.631Z,24.07
2018-05-07T12:34:39.826Z,24.40
2018-05-07T12:35:40.027Z,24.23
2018-05-07T12:36:40.212Z,24.26
2018-05-07T12:37:40.492Z,23.59
2018-05-07T12:38:40.610Z,23.79
2018-05-07T12:39:40.797Z,23.74
2018-05-07T12:40:40.992Z,23.51
2018-05-07T12:41:41.186Z,23.73
2018-05-07T12:42:41.379Z,23.60
2018-05-07T12:43:41.572Z,23.52
2018-05-07T12:44:41.765Z,23.70
2018-05-07T12:45:41.957Z,23.91
2018-05-07T12:46:42.221Z,23.82
2018-05-07T12:47:42.343Z,23.73
2018-05-07T12:48:42.536Z,23.71
2018-05-07T12:49:42.731Z,23.76
2018-05-07T12:50:42.925Z,23.81
2018-05-07T12:51:43.118Z,23.91
2018-05-07T12:52:43.358Z,24.18
2018-05-07T12:53:43.501Z,24.10
2018-05-07T12:54:43.698Z,24.36
2018-05-07T12:55:43.893Z,24.26
2018-05-07T12:56:44.090Z,24.25
2018-05-07T12:57:44.282Z,24.06
2018-05-07T12:58:44.476Z,24.26